Flight Track Log - Related Links

Times and Time Zones

All times are in EDT time to prevent confusion due to time zone crossing. See the N560HM flight status page for this flight to view local times or setup timezone preferences in your user account.

Time Position Orientation Groundspeed Altitude Reporting Facility
EDT Latitude Longitude Course Direction KTS MPH feet Rate Location/Type
Sun 05:48:54 PM 39.0333 -77.5000 346° North 236 272 4,000  Level Potomac TRACON
Sun 05:49:54 PM 39.0833 -77.5333 333° Northwest 261 300 6,600 2,619 Climbing Potomac TRACON
Sun 05:51:00 PM 39.1667 -77.5833 335° Northwest 283 326 9,500 2,667 Climbing Potomac TRACON
Sun 05:52:00 PM 39.2333 -77.6333 330° Northwest 291 335 12,200 2,227 Climbing Potomac TRACON
Sun 05:53:12 PM 39.3097 -77.6972 327° Northwest 303 349 14,400 1,662 Climbing Washington Center
Sun 05:54:00 PM 39.3939 -77.5813 346° North  Level FlightAware Approximate
Sun 05:54:10 PM 39.3881 -77.7533 331° Northwest 314 361 15,800  Level Washington Center
Sun 05:55:10 PM 39.4661 -77.8119 330° Northwest 319 367 16,100 341 Climbing Washington Center
Sun 05:57:41 PM 39.5906 -78.0356 306° West 310 357 17,000 254 Climbing Cleveland Center
Sun 05:58:43 PM 39.6206 -78.1411 290° West 312 359 17,000  Level Cleveland Center
Sun 05:59:45 PM 39.6531 -78.2478 292° West 316 364 17,000  Level Cleveland Center
Sun 06:00:47 PM 39.6906 -78.3767 291° West 317 365 17,000  Level Cleveland Center
Sun 06:01:50 PM 39.7228 -78.4831 292° West 317 365 17,000  Level Cleveland Center
Sun 06:02:53 PM 39.7525 -78.5889 290° West 317 365 17,000 -192 Level Cleveland Center
Sun 06:03:55 PM 39.7817 -78.6886 291° West 316 364 16,600 -1,091 Descending Cleveland Center
Sun 06:04:32 PM 39.8053 -78.7725 290° West 308 354 15,200 -2,093 Descending Cleveland Center
Sun 06:04:38 PM 39.8089 -78.7811 299° West 307 353 15,100 -960 Descending Cleveland Center
Sun 06:04:57 PM 39.8175 -78.8128 290° West 307 353 14,800 -1,475 Descending Cleveland Center
Sun 06:05:39 PM 39.8383 -78.8831 291° West 303 349 13,600 -1,429 Descending Cleveland Center
Sun 06:06:00 PM 39.8464 -78.9133 289° West 304 350 13,300 -1,500 Descending Cleveland Center
Sun 06:06:39 PM 39.8675 -78.9878 290° West 309 356 12,100 -1,645 Descending Cleveland Center
Sun 06:07:02 PM 39.8772 -79.0189 292° West 307 353 11,600 -1,574 Descending Cleveland Center
Sun 06:07:40 PM 39.8983 -79.0953 290° West 297 342 10,500 -1,333 Descending Cleveland Center
Sun 06:08:05 PM 39.9050 -79.1153 293° West 293 337 10,200 -1,475 Descending Cleveland Center
Sun 06:08:41 PM 39.9225 -79.1833 289° West 263 303 9,000 -1,548 Descending Cleveland Center
Sun 06:09:07 PM 39.9306 -79.2050 296° West 268 308 8,600 -1,400 Descending Cleveland Center
Sun 06:09:41 PM 39.9533 -79.2667 296° West 255 293 7,600 -1,355 Descending Cleveland Center
Sun 06:10:09 PM 39.9722 -79.3058 302° West 266 306 7,200 -689 Descending Cleveland Center
Sun 06:10:42 PM 39.9903 -79.3508 298° West 264 304 6,900 -290 Descending Cleveland Center
Sun 06:11:11 PM 40.0069 -79.3894 299° West 265 305 6,900  Level Cleveland Center
Sun 06:12:13 PM 40.0425 -79.4733 299° West 265 305 6,900  Level Cleveland Center
Sun 06:12:43 PM 40.0614 -79.5222 297° West 266 306 6,900  Level Cleveland Center
Sun 06:13:16 PM 40.0797 -79.5589 303° West 265 305 6,900 -695 Level Cleveland Center
Sun 06:14:18 PM 40.1139 -79.6433 298° West 265 305 5,800 -871 Descending Cleveland Center
Sun 06:15:20 PM 40.1478 -79.7253 298° West 259 298 5,100 -435 Descending Cleveland Center
Sun 06:16:22 PM 40.1856 -79.7975 304° West 243 280 4,900 -581 Descending Cleveland Center
Sun 06:17:24 PM 40.2261 -79.8553 313° West 217 250 3,900 -774 Descending Cleveland Center
Sun 06:18:26 PM 40.2767 -79.9156 318° Northwest 213 245 3,300 -677 Descending Cleveland Center
Sun 06:19:28 PM 40.3114 -79.9542 320° Northwest 186 214 2,500 -677 Descending Cleveland Center
Sun 06:20:30 PM 40.3436 -79.9653 345° North 146 168 1,900 -581 Descending Cleveland Center
Sun 06:21:32 PM 40.3536 -79.9314 69° East 129 148 1,300 -581 Descending Cleveland Center
Sun 06:23:00 PM 40.3544 -79.9290 123° Southeast  Level Estimated

Login

Don't have an account? Register now (free) for customized features, flight alerts, and more!